createdAt,value
2018-10-16T00:02:22.620Z,12.60
2018-10-16T00:04:49.818Z,12.13
2018-10-16T00:07:17.048Z,12.67
2018-10-16T00:09:44.280Z,12.27
2018-10-16T00:12:11.497Z,11.90
2018-10-16T00:14:38.671Z,11.77
2018-10-16T00:17:05.876Z,12.30
2018-10-16T00:19:33.558Z,11.80
2018-10-16T00:22:01.071Z,13.20
2018-10-16T00:24:28.282Z,12.40
2018-10-16T00:26:55.464Z,12.87
2018-10-16T00:29:22.689Z,12.23
2018-10-16T00:31:49.977Z,12.20
2018-10-16T00:34:17.299Z,12.90
2018-10-16T00:36:44.506Z,12.13
2018-10-16T00:39:13.012Z,13.37
2018-10-16T00:41:40.566Z,12.60
2018-10-16T00:44:10.769Z,13.13
2018-10-16T00:46:39.262Z,12.47
2018-10-16T00:49:06.496Z,12.37
2018-10-16T00:51:33.760Z,12.33
2018-10-16T00:54:00.967Z,12.40
2018-10-16T00:56:28.201Z,12.13
2018-10-16T00:58:55.468Z,13.67
2018-10-16T01:01:28.352Z,12.70
2018-10-16T01:03:55.607Z,12.47
2018-10-16T01:06:22.852Z,12.77
2018-10-16T01:08:50.085Z,12.43
2018-10-16T01:11:17.511Z,12.47
2018-10-16T01:13:44.825Z,13.50
2018-10-16T01:16:12.116Z,13.57
2018-10-16T01:18:39.329Z,13.30
2018-10-16T01:21:06.566Z,12.43
2018-10-16T01:23:33.794Z,12.60
2018-10-16T01:26:01.008Z,11.73
2018-10-16T01:28:28.187Z,12.93
2018-10-16T01:30:55.381Z,13.30
2018-10-16T01:33:22.549Z,12.80
2018-10-16T01:35:49.851Z,12.80
2018-10-16T01:38:17.074Z,12.50
2018-10-16T01:40:44.325Z,12.83
2018-10-16T01:43:11.529Z,11.50
2018-10-16T01:45:38.745Z,12.67
2018-10-16T01:48:05.936Z,11.77
2018-10-16T01:50:33.156Z,12.90
2018-10-16T01:53:00.349Z,12.80
2018-10-16T01:55:27.613Z,13.77
2018-10-16T01:57:54.838Z,12.63
2018-10-16T02:00:22.112Z,12.43
2018-10-16T02:02:49.388Z,13.10
2018-10-16T02:05:16.598Z,12.43
2018-10-16T02:07:43.816Z,12.07
2018-10-16T02:10:14.129Z,11.90
2018-10-16T02:12:41.360Z,12.43
2018-10-16T02:15:08.992Z,12.77
2018-10-16T02:17:36.485Z,12.53
2018-10-16T02:20:04.088Z,12.70
2018-10-16T02:22:31.312Z,13.70
2018-10-16T02:24:58.559Z,13.33
2018-10-16T02:27:27.406Z,12.63
2018-10-16T02:29:54.597Z,14.63
2018-10-16T02:32:21.815Z,14.07
2018-10-16T02:34:49.147Z,13.40
2018-10-16T02:37:16.384Z,13.67
2018-10-16T02:39:43.583Z,14.43
2018-10-16T02:42:10.817Z,14.13
2018-10-16T02:44:38.025Z,13.30
2018-10-16T02:47:05.384Z,13.30
2018-10-16T02:49:32.565Z,12.90
2018-10-16T02:51:59.752Z,13.93
2018-10-16T02:54:27.038Z,13.50
2018-10-16T02:56:54.255Z,12.87
2018-10-16T02:59:21.500Z,14.20
2018-10-16T03:01:48.688Z,14.10
2018-10-16T03:04:15.896Z,14.80
2018-10-16T03:06:43.129Z,13.70
2018-10-16T03:09:10.399Z,14.57
2018-10-16T03:11:37.606Z,13.53
2018-10-16T03:14:04.837Z,13.77
2018-10-16T03:16:32.073Z,14.80
2018-10-16T03:18:59.357Z,14.63
2018-10-16T03:21:26.593Z,14.93
2018-10-16T03:23:53.798Z,14.20
2018-10-16T03:26:21.008Z,14.70
2018-10-16T03:28:48.248Z,14.07
2018-10-16T03:31:15.412Z,12.87
2018-10-16T03:33:42.653Z,14.20
2018-10-16T03:36:09.861Z,13.83
2018-10-16T03:38:37.085Z,14.10
2018-10-16T03:41:04.256Z,12.37
2018-10-16T03:43:31.507Z,14.53
2018-10-16T03:45:58.750Z,13.30
2018-10-16T03:48:25.949Z,14.10
2018-10-16T03:50:53.149Z,13.87
2018-10-16T03:53:20.352Z,12.67
2018-10-16T03:55:47.815Z,13.40
2018-10-16T03:58:15.014Z,14.17
2018-10-16T04:00:42.239Z,12.73
2018-10-16T04:03:09.477Z,13.03
2018-10-16T04:05:36.704Z,14.03
2018-10-16T04:08:03.982Z,12.77
2018-10-16T04:10:31.169Z,13.27
2018-10-16T04:12:58.450Z,14.00
2018-10-16T04:15:25.690Z,13.10
2018-10-16T04:17:52.926Z,13.47
2018-10-16T04:20:20.119Z,14.10
2018-10-16T04:22:47.301Z,13.90
2018-10-16T04:25:14.913Z,13.73
2018-10-16T04:27:42.121Z,14.07
2018-10-16T04:30:09.544Z,13.23
2018-10-16T04:32:36.746Z,13.17
2018-10-16T04:35:15.254Z,12.43
2018-10-16T04:37:42.828Z,13.93
2018-10-16T04:40:10.165Z,12.83
2018-10-16T04:42:37.324Z,14.63
2018-10-16T04:45:04.827Z,13.17
2018-10-16T04:47:32.044Z,14.00
2018-10-16T04:49:59.264Z,13.90
2018-10-16T04:52:26.924Z,13.10
2018-10-16T04:54:54.160Z,14.13
2018-10-16T04:57:21.391Z,14.17
2018-10-16T04:59:48.629Z,13.90
2018-10-16T05:02:15.863Z,13.80
2018-10-16T05:04:43.093Z,12.53
2018-10-16T05:07:10.323Z,13.03
2018-10-16T05:09:37.560Z,13.30
2018-10-16T05:12:04.816Z,14.20
2018-10-16T05:14:32.064Z,13.13
2018-10-16T05:16:59.292Z,13.07
2018-10-16T05:19:26.465Z,11.87
2018-10-16T05:21:53.670Z,13.17
2018-10-16T05:24:20.890Z,14.43
2018-10-16T05:26:48.054Z,15.17
2018-10-16T05:29:15.252Z,13.40
2018-10-16T05:31:42.455Z,14.10
2018-10-16T05:34:09.681Z,13.73
2018-10-16T05:36:37.243Z,14.77
2018-10-16T05:39:07.610Z,14.03
2018-10-16T05:41:34.844Z,13.23
2018-10-16T05:44:02.040Z,14.00
2018-10-16T05:46:29.299Z,14.87
2018-10-16T05:48:56.470Z,14.20
2018-10-16T05:51:23.731Z,14.47
2018-10-16T05:53:50.943Z,13.90
2018-10-16T05:56:18.147Z,14.10
2018-10-16T05:58:45.364Z,15.07
2018-10-16T06:01:12.586Z,13.33
2018-10-16T06:03:39.823Z,14.97
2018-10-16T06:06:06.997Z,13.27
2018-10-16T06:08:34.213Z,13.00
2018-10-16T06:11:01.458Z,13.70
2018-10-16T06:13:28.672Z,13.90
2018-10-16T06:15:55.934Z,14.37
2018-10-16T06:18:23.150Z,14.60
2018-10-16T06:20:50.364Z,15.13
2018-10-16T06:23:17.516Z,14.53
2018-10-16T06:25:44.717Z,13.43
2018-10-16T06:28:13.124Z,14.13
2018-10-16T06:30:40.305Z,13.67
2018-10-16T06:33:07.608Z,13.13
2018-10-16T06:35:34.764Z,12.67
2018-10-16T06:38:02.002Z,13.87
2018-10-16T06:40:29.273Z,13.07
2018-10-16T06:42:56.504Z,12.90
2018-10-16T06:45:23.750Z,13.37
2018-10-16T06:47:51.058Z,13.33
2018-10-16T06:50:18.208Z,14.27
2018-10-16T06:52:45.396Z,14.57
2018-10-16T06:55:12.672Z,13.73
2018-10-16T06:57:39.820Z,11.80
2018-10-16T07:00:07.172Z,13.70
2018-10-16T07:02:34.338Z,14.30
2018-10-16T07:05:01.510Z,13.83
2018-10-16T07:07:28.722Z,12.90
2018-10-16T07:09:55.979Z,13.43
2018-10-16T07:12:23.188Z,13.03
2018-10-16T07:14:50.436Z,14.23
2018-10-16T07:17:17.584Z,17.00
2018-10-16T07:19:44.784Z,14.07
2018-10-16T07:22:12.168Z,13.50
2018-10-16T07:24:39.594Z,13.73
2018-10-16T07:27:06.941Z,13.60
2018-10-16T07:29:34.218Z,13.47
2018-10-16T07:32:04.259Z,13.00
2018-10-16T07:34:31.663Z,13.87
2018-10-16T07:36:58.881Z,13.30
2018-10-16T07:39:26.101Z,13.30
2018-10-16T07:41:53.292Z,12.77
2018-10-16T07:44:20.501Z,14.73
2018-10-16T07:46:47.660Z,12.93
2018-10-16T07:49:14.891Z,13.80
2018-10-16T07:51:42.061Z,13.00
2018-10-16T07:54:09.246Z,13.17
2018-10-16T07:56:36.474Z,12.80
2018-10-16T07:59:04.548Z,13.70
2018-10-16T08:01:31.842Z,13.43
2018-10-16T08:03:59.019Z,14.27
2018-10-16T08:06:26.208Z,18.57
2018-10-16T08:08:53.374Z,22.90
2018-10-16T08:11:20.683Z,14.50
2018-10-16T08:13:47.858Z,14.57
2018-10-16T08:16:15.081Z,14.03
2018-10-16T08:18:42.269Z,13.63
2018-10-16T08:21:09.487Z,14.77
2018-10-16T08:23:36.674Z,14.10
2018-10-16T08:26:04.888Z,13.23
2018-10-16T08:28:32.057Z,13.90
2018-10-16T08:30:59.270Z,13.87
2018-10-16T08:33:26.470Z,14.10
2018-10-16T08:35:53.725Z,14.37
2018-10-16T08:38:23.548Z,14.03
2018-10-16T08:40:50.786Z,15.53
2018-10-16T08:45:27.700Z,13.67
2018-10-16T08:48:00.740Z,14.30
2018-10-16T08:50:34.760Z,14.50
2018-10-16T08:53:02.312Z,14.53
2018-10-16T08:55:29.488Z,13.97
2018-10-16T08:57:56.638Z,14.60
2018-10-16T09:00:23.775Z,14.27
2018-10-16T09:02:50.877Z,13.93
2018-10-16T09:05:18.050Z,13.43
2018-10-16T09:07:45.241Z,14.87
2018-10-16T09:10:12.388Z,13.73
2018-10-16T09:12:39.549Z,14.33
2018-10-16T09:15:08.123Z,14.20
2018-10-16T09:17:36.016Z,15.13
2018-10-16T09:20:08.833Z,14.73
2018-10-16T09:22:36.005Z,14.47
2018-10-16T09:25:03.464Z,14.38
2018-10-16T09:27:30.577Z,14.40
2018-10-16T09:29:57.762Z,14.13
2018-10-16T09:32:25.110Z,13.40
2018-10-16T09:34:52.494Z,14.05
2018-10-16T09:37:19.668Z,13.40
2018-10-16T09:39:46.812Z,13.70
2018-10-16T09:42:13.972Z,14.25
2018-10-16T09:44:41.104Z,14.70
2018-10-16T09:47:08.298Z,14.23
2018-10-16T09:49:35.737Z,13.60
2018-10-16T09:52:03.012Z,12.75
2018-10-16T09:54:30.199Z,14.23
2018-10-16T09:56:57.348Z,13.58
2018-10-16T09:59:24.482Z,13.40
2018-10-16T10:01:54.415Z,12.85
2018-10-16T10:04:22.644Z,12.82
2018-10-16T10:06:50.000Z,12.47
2018-10-16T10:09:17.549Z,13.20
2018-10-16T10:11:44.785Z,11.48
2018-10-16T10:14:12.169Z,12.20
2018-10-16T10:16:42.157Z,11.65
2018-10-16T10:19:09.320Z,12.85
2018-10-16T10:21:36.831Z,11.08
2018-10-16T10:24:03.993Z,11.05
2018-10-16T10:26:31.140Z,11.97
2018-10-16T10:28:58.493Z,10.60
2018-10-16T10:31:26.224Z,10.60
2018-10-16T10:33:53.388Z,11.95
2018-10-16T10:36:20.554Z,11.43
2018-10-16T10:38:47.721Z,10.60
2018-10-16T10:41:15.098Z,10.75
2018-10-16T10:43:49.256Z,10.08
2018-10-16T10:46:16.407Z,11.05
2018-10-16T10:48:43.565Z,11.08
2018-10-16T10:51:10.879Z,11.60
2018-10-16T10:53:37.850Z,10.35
2018-10-16T10:56:05.229Z,10.43
2018-10-16T10:58:39.362Z,9.93
2018-10-16T11:01:06.552Z,10.50
2018-10-16T11:03:33.886Z,10.55
2018-10-16T11:06:00.912Z,9.93
2018-10-16T11:08:28.065Z,10.58
2018-10-16T11:10:55.170Z,9.63
2018-10-16T11:13:22.300Z,11.57
2018-10-16T11:15:49.440Z,10.40
2018-10-16T11:18:16.576Z,10.18
2018-10-16T11:20:43.728Z,10.00
2018-10-16T11:23:10.868Z,9.20
2018-10-16T11:25:38.025Z,9.40
2018-10-16T11:28:05.383Z,8.78
2018-10-16T11:30:33.415Z,8.33
2018-10-16T11:33:00.567Z,8.80
2018-10-16T11:35:27.673Z,7.53
2018-10-16T11:37:54.769Z,8.30
2018-10-16T11:40:21.908Z,8.43
2018-10-16T11:42:49.022Z,8.33
2018-10-16T11:45:16.243Z,8.30
2018-10-16T11:47:43.326Z,7.45
2018-10-16T11:50:11.394Z,7.75
2018-10-16T11:52:38.720Z,8.38
2018-10-16T11:55:06.125Z,7.25
2018-10-16T11:57:33.292Z,7.37
2018-10-16T12:00:00.407Z,8.15
2018-10-16T12:02:27.661Z,8.50
2018-10-16T12:04:54.737Z,7.62
2018-10-16T12:07:21.877Z,7.85
2018-10-16T12:09:48.973Z,7.35
2018-10-16T12:12:16.126Z,7.70
2018-10-16T12:14:43.272Z,7.28
2018-10-16T12:17:14.819Z,8.15
2018-10-16T12:19:45.155Z,7.10
2018-10-16T12:22:12.204Z,7.97
2018-10-16T12:24:39.319Z,7.62
2018-10-16T12:27:06.509Z,7.83
2018-10-16T12:29:33.636Z,7.95
2018-10-16T12:32:00.753Z,7.50
2018-10-16T12:34:27.906Z,7.50
2018-10-16T12:36:55.093Z,8.13
2018-10-16T12:39:22.177Z,6.35
2018-10-16T12:41:49.375Z,6.87
2018-10-16T12:44:16.553Z,7.08
2018-10-16T12:46:43.709Z,7.47
2018-10-16T12:49:10.817Z,7.92
2018-10-16T12:51:37.968Z,7.67
2018-10-16T12:54:05.172Z,7.92
2018-10-16T12:56:32.311Z,7.22
2018-10-16T12:58:59.479Z,6.30
2018-10-16T13:01:26.736Z,6.97
2018-10-16T13:03:53.880Z,6.80
2018-10-16T15:09:37.781Z,7.28
2018-10-16T15:12:05.045Z,6.85
2018-10-16T15:14:32.505Z,7.65
2018-10-16T15:17:00.147Z,6.75
2018-10-16T15:19:28.313Z,5.97
2018-10-16T15:21:56.311Z,7.00
2018-10-16T15:24:24.214Z,6.40
2018-10-16T15:26:51.602Z,7.03
2018-10-16T15:29:18.756Z,7.05
2018-10-16T15:31:45.929Z,6.10
2018-10-16T15:34:13.567Z,6.22
2018-10-16T15:36:40.691Z,6.53
2018-10-16T15:44:55.770Z,7.55
2018-10-16T15:47:22.940Z,6.97
2018-10-16T15:49:50.090Z,7.10
2018-10-16T15:52:17.460Z,6.67
2018-10-16T15:54:44.676Z,6.70
2018-10-16T15:57:11.924Z,6.78
2018-10-16T15:59:39.242Z,7.12
2018-10-16T16:02:06.418Z,9.38
2018-10-16T16:04:33.752Z,9.08
2018-10-16T16:07:00.969Z,7.97
2018-10-16T16:09:28.240Z,6.67
2018-10-16T16:11:55.611Z,6.85
2018-10-16T16:14:22.847Z,7.15
2018-10-16T16:16:50.119Z,6.72
2018-10-16T16:19:17.372Z,7.30
2018-10-16T16:21:44.781Z,7.30
2018-10-16T16:24:12.097Z,6.72
2018-10-16T16:26:39.439Z,14.03
2018-10-16T16:29:06.719Z,12.73
2018-10-16T16:31:33.985Z,8.68
2018-10-16T16:34:03.447Z,8.48
2018-10-16T16:36:30.720Z,8.33
2018-10-16T16:38:57.990Z,7.67
2018-10-16T16:41:25.285Z,8.25
2018-10-16T16:43:52.619Z,7.67
2018-10-16T16:46:19.833Z,8.48
2018-10-16T16:48:47.091Z,8.57
2018-10-16T16:51:14.344Z,7.42
2018-10-16T16:53:41.647Z,8.98
2018-10-16T16:56:08.939Z,7.53
2018-10-16T16:58:36.221Z,6.90
2018-10-16T17:01:03.633Z,7.07
2018-10-16T17:03:30.902Z,7.10
2018-10-16T17:05:58.143Z,7.77
2018-10-16T17:08:25.394Z,9.00
2018-10-16T17:10:52.605Z,8.20
2018-10-16T17:13:19.866Z,9.07
2018-10-16T17:15:47.109Z,9.37
2018-10-16T17:18:14.403Z,10.50
2018-10-16T17:20:41.544Z,10.97
2018-10-16T17:23:08.785Z,13.07
2018-10-16T17:25:36.508Z,17.20
2018-10-16T17:28:03.576Z,15.87
2018-10-16T17:30:30.808Z,18.43
2018-10-16T17:32:58.097Z,13.20
2018-10-16T17:35:25.343Z,11.77
2018-10-16T17:38:12.709Z,12.23
2018-10-16T17:40:40.219Z,12.77
2018-10-16T17:43:07.425Z,13.27
2018-10-16T17:45:34.715Z,13.57
2018-10-16T17:48:02.001Z,13.57
2018-10-16T17:50:29.181Z,14.07
2018-10-16T17:52:56.445Z,14.20
2018-10-16T17:55:23.705Z,14.67
2018-10-16T17:57:50.998Z,20.40
2018-10-16T18:00:19.006Z,20.57
2018-10-16T18:02:46.316Z,21.00
2018-10-16T18:05:13.982Z,20.33
2018-10-16T18:07:41.701Z,19.43
2018-10-16T18:10:09.122Z,16.83
2018-10-16T18:12:36.949Z,14.80
2018-10-16T18:15:04.785Z,13.43
2018-10-16T18:17:32.019Z,13.00
2018-10-16T18:19:59.308Z,13.63
2018-10-16T18:22:26.533Z,13.83
2018-10-16T18:24:53.714Z,13.70
2018-10-16T18:27:20.965Z,13.27
2018-10-16T18:29:48.277Z,13.47
2018-10-16T18:32:15.445Z,13.17
2018-10-16T18:34:42.713Z,12.77
2018-10-16T18:37:09.961Z,13.13
2018-10-16T18:39:37.286Z,12.33
2018-10-16T18:42:04.492Z,11.77
2018-10-16T18:44:31.737Z,12.20
2018-10-16T18:46:58.910Z,12.87
2018-10-16T18:49:26.149Z,13.00
2018-10-16T18:51:53.393Z,13.13
2018-10-16T18:54:20.652Z,13.00
2018-10-16T18:56:47.821Z,13.83
2018-10-16T18:59:15.047Z,12.73
2018-10-16T19:01:42.312Z,13.60
2018-10-16T19:04:09.645Z,12.33
2018-10-16T19:06:36.971Z,13.93
2018-10-16T19:09:06.301Z,13.90
2018-10-16T19:11:33.463Z,14.60
2018-10-16T19:14:00.793Z,17.03
2018-10-16T19:16:28.025Z,15.00
2018-10-16T19:18:55.246Z,15.73
2018-10-16T19:21:22.483Z,13.27
2018-10-16T19:23:49.697Z,14.00
2018-10-16T19:26:16.965Z,13.77
2018-10-16T19:28:44.173Z,13.50
2018-10-16T19:31:11.414Z,15.10
2018-10-16T19:33:38.624Z,13.60
2018-10-16T19:36:05.852Z,14.53
2018-10-16T19:38:33.075Z,13.87
2018-10-16T19:41:00.333Z,14.43
2018-10-16T19:43:27.539Z,15.20
2018-10-16T19:45:54.769Z,14.83
2018-10-16T19:48:22.031Z,14.53
2018-10-16T19:50:49.293Z,14.13
2018-10-16T19:53:16.527Z,14.10
2018-10-16T19:55:43.760Z,15.20
2018-10-16T19:58:10.960Z,14.77
2018-10-16T20:00:38.213Z,14.73
2018-10-16T20:03:05.453Z,14.67
2018-10-16T20:05:39.292Z,15.07
2018-10-16T20:08:06.697Z,14.67
2018-10-16T20:10:33.977Z,14.37
2018-10-16T20:13:01.220Z,14.90
2018-10-16T20:15:28.489Z,14.37
2018-10-16T20:17:55.696Z,16.77
2018-10-16T20:20:22.956Z,17.47
2018-10-16T20:22:50.134Z,15.80
2018-10-16T20:25:17.341Z,15.20
2018-10-16T20:27:44.734Z,14.47
2018-10-16T20:30:12.073Z,14.40
2018-10-16T20:32:39.518Z,15.10
2018-10-16T20:35:06.759Z,14.80
2018-10-16T20:37:34.019Z,15.33
2018-10-16T20:40:01.281Z,17.67
2018-10-16T20:42:28.535Z,15.53
2018-10-16T20:44:55.764Z,16.80
2018-10-16T20:47:23.068Z,16.10
2018-10-16T20:49:50.229Z,15.40
2018-10-16T20:52:17.539Z,15.30
2018-10-16T20:54:44.772Z,15.67
2018-10-16T20:57:12.029Z,15.17
2018-10-16T20:59:41.074Z,15.57
2018-10-16T21:02:08.340Z,15.37
2018-10-16T21:04:35.675Z,14.53
2018-10-16T21:07:02.971Z,14.23
2018-10-16T21:09:30.104Z,15.03
2018-10-16T21:11:57.361Z,15.83
2018-10-16T21:14:24.564Z,20.63
2018-10-16T21:16:51.819Z,21.00
2018-10-16T21:19:19.109Z,21.23
2018-10-16T21:21:46.292Z,19.83
2018-10-16T21:24:13.522Z,16.97
2018-10-16T21:26:40.785Z,16.03
2018-10-16T21:29:08.073Z,15.47
2018-10-16T21:31:35.259Z,14.73
2018-10-16T21:34:02.517Z,15.20
2018-10-16T21:36:29.717Z,15.80
2018-10-16T21:38:57.017Z,14.97
2018-10-16T21:41:24.262Z,14.27
2018-10-16T21:43:51.536Z,14.63
2018-10-16T21:46:18.773Z,14.53
2018-10-16T21:48:46.001Z,14.53
2018-10-16T21:51:13.240Z,15.00
2018-10-16T21:53:40.501Z,15.73
2018-10-16T21:56:07.743Z,14.23
2018-10-16T21:58:35.082Z,15.90
2018-10-16T22:01:09.277Z,16.53
2018-10-16T22:03:36.528Z,15.80
2018-10-16T22:06:03.789Z,16.37
2018-10-16T22:08:30.999Z,15.63
2018-10-16T22:10:58.286Z,14.30
2018-10-16T22:13:25.485Z,14.67
2018-10-16T22:15:52.752Z,14.63
2018-10-16T22:18:19.930Z,14.57
2018-10-16T22:20:47.172Z,14.53
2018-10-16T22:23:14.501Z,15.77
2018-10-16T22:25:41.708Z,15.07
2018-10-16T22:28:08.924Z,14.97
2018-10-16T22:30:36.169Z,14.90
2018-10-16T22:33:03.510Z,14.97
2018-10-16T22:35:30.749Z,14.50
2018-10-16T22:37:57.972Z,16.17
2018-10-16T22:40:25.153Z,14.70
2018-10-16T22:42:52.425Z,14.37
2018-10-16T22:45:19.640Z,14.43
2018-10-16T22:47:46.867Z,15.83
2018-10-16T22:50:14.094Z,13.70
2018-10-16T22:52:41.344Z,13.83
2018-10-16T22:55:09.163Z,14.33
2018-10-16T22:57:36.423Z,14.80
2018-10-16T23:00:04.237Z,14.03
2018-10-16T23:02:31.476Z,14.30
2018-10-16T23:04:58.729Z,14.20
2018-10-16T23:07:25.991Z,15.43
2018-10-16T23:09:53.233Z,14.33
2018-10-16T23:12:20.614Z,14.53
2018-10-16T23:14:47.852Z,15.43
2018-10-16T23:17:15.103Z,15.00
2018-10-16T23:19:42.357Z,16.23
2018-10-16T23:22:09.628Z,14.53
2018-10-16T23:24:36.852Z,15.17
2018-10-16T23:27:04.368Z,14.20
2018-10-16T23:29:31.597Z,15.13
2018-10-16T23:31:58.832Z,15.07
2018-10-16T23:34:25.981Z,14.60
2018-10-16T23:36:53.227Z,14.47
2018-10-16T23:39:20.452Z,14.93
2018-10-16T23:41:47.713Z,15.17
2018-10-16T23:44:14.959Z,14.43
2018-10-16T23:46:42.207Z,15.30
2018-10-16T23:49:09.723Z,14.40
2018-10-16T23:51:37.017Z,14.77
2018-10-16T23:54:04.512Z,14.67
2018-10-16T23:56:31.736Z,16.20
2018-10-16T23:58:59.062Z,15.27
